createdAt,value
2023-10-16T00:01:21.348Z,4.60
2023-10-16T00:03:50.856Z,4.60
2023-10-16T00:06:19.364Z,4.60
2023-10-16T00:08:50.609Z,4.60
2023-10-16T00:11:20.138Z,4.60
2023-10-16T00:13:50.640Z,4.60
2023-10-16T00:16:20.183Z,4.60
2023-10-16T00:18:52.043Z,4.60
2023-10-16T00:21:20.435Z,4.60
2023-10-16T00:23:48.675Z,4.60
2023-10-16T00:26:21.402Z,4.50
2023-10-16T00:29:02.122Z,4.50
2023-10-16T00:31:33.877Z,4.50
2023-10-16T00:34:05.118Z,4.50
2023-10-16T00:36:33.551Z,4.40
2023-10-16T00:39:14.208Z,4.50
2023-10-16T00:41:44.839Z,4.40
2023-10-16T00:44:13.008Z,4.40
2023-10-16T00:46:45.644Z,4.40
2023-10-16T00:49:15.513Z,4.40
2023-10-16T00:51:46.101Z,4.40
2023-10-16T00:54:19.708Z,4.40
2023-10-16T00:56:50.231Z,4.40
2023-10-16T00:59:18.864Z,4.40
2023-10-16T01:01:48.097Z,4.40
2023-10-16T01:04:20.702Z,4.40
2023-10-16T01:06:49.091Z,4.50
2023-10-16T01:09:24.064Z,4.60
2023-10-16T01:11:53.952Z,4.60
2023-10-16T01:14:22.678Z,4.60
2023-10-16T01:16:52.273Z,4.60
2023-10-16T01:19:22.151Z,4.60
2023-10-16T01:21:50.773Z,4.60
2023-10-16T01:24:21.044Z,4.60
2023-10-16T01:26:50.700Z,4.60
2023-10-16T01:29:19.090Z,4.50
2023-10-16T01:31:53.292Z,4.50
2023-10-16T01:34:23.622Z,4.50
2023-10-16T01:36:53.092Z,4.50
2023-10-16T01:39:50.896Z,4.60
2023-10-16T01:42:20.514Z,4.60
2023-10-16T01:44:49.591Z,4.60
2023-10-16T01:47:17.765Z,4.70
2023-10-16T01:49:49.176Z,4.70
2023-10-16T01:52:17.728Z,4.70
2023-10-16T01:54:48.537Z,4.70
2023-10-16T01:57:17.660Z,4.70
2023-10-16T01:59:48.983Z,4.60
2023-10-16T02:02:19.323Z,4.70
2023-10-16T02:04:47.964Z,4.60
2023-10-16T02:07:16.117Z,4.60
2023-10-16T02:09:45.252Z,4.60
2023-10-16T02:12:17.782Z,4.60
2023-10-16T02:14:47.165Z,4.60
2023-10-16T02:17:22.761Z,4.60
2023-10-16T02:19:51.552Z,4.60
2023-10-16T02:22:23.486Z,4.60
2023-10-16T02:24:52.019Z,4.60
2023-10-16T02:27:21.659Z,4.60
2023-10-16T02:29:53.408Z,4.60
2023-10-16T02:32:23.972Z,4.50
2023-10-16T02:34:52.587Z,4.50
2023-10-16T02:37:22.622Z,4.50
2023-10-16T02:39:55.377Z,4.50
2023-10-16T02:42:26.961Z,4.50
2023-10-16T02:44:55.615Z,4.50
2023-10-16T02:47:27.301Z,4.50
2023-10-16T02:49:57.859Z,4.40
2023-10-16T02:52:27.072Z,4.40
2023-10-16T02:54:58.767Z,4.40
2023-10-16T02:57:28.707Z,4.30
2023-10-16T02:59:57.911Z,4.30
2023-10-16T03:02:28.497Z,4.30
2023-10-16T03:05:11.383Z,4.20
2023-10-16T03:07:46.007Z,4.30
2023-10-16T03:10:15.862Z,4.30
2023-10-16T03:12:45.705Z,4.40
2023-10-16T03:15:18.424Z,4.40
2023-10-16T03:17:51.561Z,4.40
2023-10-16T03:20:23.801Z,4.40
2023-10-16T03:22:53.135Z,4.40
2023-10-16T03:25:48.319Z,4.30
2023-10-16T03:28:18.985Z,4.30
2023-10-16T03:30:47.311Z,4.30
2023-10-16T03:33:16.344Z,4.30
2023-10-16T03:35:46.283Z,4.20
2023-10-16T03:38:21.459Z,4.20
2023-10-16T03:40:52.460Z,4.20
2023-10-16T03:43:23.401Z,4.20
2023-10-16T03:45:52.003Z,4.10
2023-10-16T03:48:21.323Z,4.10
2023-10-16T03:50:49.995Z,4.10
2023-10-16T03:53:18.176Z,4.20
2023-10-16T03:55:48.224Z,4.20
2023-10-16T03:58:17.797Z,4.20
2023-10-16T04:00:54.253Z,4.30
2023-10-16T04:03:23.924Z,4.30
2023-10-16T04:05:53.066Z,4.40
2023-10-16T04:08:24.737Z,4.50
2023-10-16T04:10:55.653Z,4.50
2023-10-16T04:13:27.505Z,4.50
2023-10-16T04:16:14.935Z,4.60
2023-10-16T04:18:43.166Z,4.60
2023-10-16T04:21:38.459Z,4.60
2023-10-16T04:24:20.844Z,4.60
2023-10-16T04:26:58.276Z,4.60
2023-10-16T04:29:30.193Z,4.60
2023-10-16T04:32:09.077Z,4.70
2023-10-16T04:34:40.325Z,4.60
2023-10-16T04:37:27.008Z,4.50
2023-10-16T04:40:13.439Z,4.50
2023-10-16T04:42:59.195Z,4.50
2023-10-16T04:45:29.662Z,4.50
2023-10-16T04:48:08.350Z,4.50
2023-10-16T04:51:10.208Z,4.60
2023-10-16T04:53:30.118Z,4.60
2023-10-16T04:56:16.926Z,4.50
2023-10-16T04:59:00.586Z,4.50
2023-10-16T05:01:51.609Z,4.40
2023-10-16T05:04:50.655Z,4.40
2023-10-16T05:07:19.128Z,4.40
2023-10-16T05:10:13.552Z,4.40
2023-10-16T05:12:59.175Z,4.40
2023-10-16T05:16:13.968Z,4.40
2023-10-16T05:18:45.180Z,4.40
2023-10-16T05:21:41.249Z,4.40
2023-10-16T05:24:27.101Z,4.40
2023-10-16T05:27:12.993Z,4.40
2023-10-16T05:29:58.878Z,4.40
2023-10-16T05:32:44.338Z,4.40
2023-10-16T05:35:29.843Z,4.40
2023-10-16T05:38:17.367Z,4.50
2023-10-16T05:41:03.432Z,4.50
2023-10-16T05:43:49.498Z,4.50
2023-10-16T05:46:35.232Z,4.50
2023-10-16T05:49:20.804Z,4.50
2023-10-16T05:52:06.987Z,4.50
2023-10-16T05:54:54.080Z,4.50
2023-10-16T05:57:39.523Z,4.50
2023-10-16T06:00:26.870Z,4.50
2023-10-16T06:03:12.632Z,4.50
2023-10-16T06:05:58.190Z,4.50
2023-10-16T06:08:54.443Z,4.50
2023-10-16T06:11:41.542Z,4.60
2023-10-16T06:14:14.006Z,4.60
2023-10-16T06:16:43.463Z,4.60
2023-10-16T06:19:19.370Z,4.50
2023-10-16T06:21:50.400Z,4.50
2023-10-16T06:24:28.503Z,4.50
2023-10-16T06:27:01.822Z,4.50
2023-10-16T06:29:35.767Z,4.50
2023-10-16T06:32:08.966Z,4.50
2023-10-16T06:34:37.895Z,4.60
2023-10-16T06:37:08.010Z,4.60
2023-10-16T06:39:37.905Z,4.70
2023-10-16T06:42:12.388Z,4.80
2023-10-16T06:44:44.081Z,4.90
2023-10-16T06:47:13.593Z,4.90
2023-10-16T06:49:41.924Z,5.00
2023-10-16T06:52:13.919Z,5.00
2023-10-16T06:54:43.038Z,5.10
2023-10-16T06:57:15.996Z,5.20
2023-10-16T06:59:46.454Z,5.30
2023-10-16T07:02:17.497Z,5.30
2023-10-16T07:04:46.796Z,5.30
2023-10-16T07:07:21.711Z,5.40
2023-10-16T07:09:52.888Z,5.50
2023-10-16T07:12:23.293Z,5.60
2023-10-16T07:14:57.583Z,5.70
2023-10-16T07:17:26.824Z,5.70
2023-10-16T07:20:00.342Z,5.80
2023-10-16T07:22:33.057Z,5.90
2023-10-16T07:25:26.774Z,6.00
2023-10-16T07:28:00.086Z,6.00
2023-10-16T07:30:29.069Z,6.20
2023-10-16T07:32:57.445Z,6.20
2023-10-16T07:35:25.729Z,6.40
2023-10-16T07:37:55.239Z,6.50
2023-10-16T07:40:26.966Z,6.60
2023-10-16T07:42:57.296Z,6.60
2023-10-16T07:45:26.094Z,6.60
2023-10-16T07:47:54.408Z,6.50
2023-10-16T07:50:23.247Z,6.40
2023-10-16T07:52:51.533Z,6.40
2023-10-16T07:55:20.604Z,6.40
2023-10-16T07:57:50.134Z,6.50
2023-10-16T08:00:27.177Z,6.60
2023-10-16T08:03:06.165Z,6.50
2023-10-16T08:05:35.051Z,6.50
2023-10-16T08:08:13.114Z,6.60
2023-10-16T08:10:43.938Z,6.60
2023-10-16T08:13:17.409Z,6.70
2023-10-16T08:15:50.649Z,6.90
2023-10-16T08:18:20.882Z,7.20
2023-10-16T08:21:01.674Z,7.60
2023-10-16T08:23:35.382Z,7.80
2023-10-16T08:26:15.632Z,8.10
2023-10-16T08:28:47.339Z,8.30
2023-10-16T08:31:25.913Z,8.50
2023-10-16T08:33:56.578Z,8.70
2023-10-16T08:36:25.879Z,8.70
2023-10-16T08:38:56.050Z,8.80
2023-10-16T08:41:42.292Z,8.70
2023-10-16T08:44:19.020Z,8.80
2023-10-16T08:46:55.308Z,8.90
2023-10-16T08:49:25.271Z,9.00
2023-10-16T08:51:55.416Z,9.00
2023-10-16T08:55:01.998Z,9.10
2023-10-16T08:57:31.182Z,9.20
2023-10-16T09:00:01.136Z,9.50
2023-10-16T09:02:32.380Z,9.80
2023-10-16T09:05:03.383Z,10.00
2023-10-16T09:07:33.417Z,10.20
2023-10-16T09:10:03.442Z,10.40
2023-10-16T09:12:46.022Z,10.40
2023-10-16T09:15:16.277Z,10.40
2023-10-16T09:17:48.731Z,10.50
2023-10-16T09:20:18.052Z,10.60
2023-10-16T09:22:49.140Z,10.50
2023-10-16T09:27:50.633Z,10.30
2023-10-16T09:30:21.950Z,10.20
2023-10-16T09:32:55.633Z,10.20
2023-10-16T09:35:34.025Z,10.20
2023-10-16T09:38:13.751Z,10.00
2023-10-16T09:40:45.530Z,10.00
2023-10-16T09:43:25.461Z,9.90
2023-10-16T09:46:17.324Z,9.90
2023-10-16T09:48:48.779Z,9.70
2023-10-16T09:51:17.481Z,9.70
2023-10-16T09:53:45.704Z,9.80
2023-10-16T09:56:16.874Z,9.80
2023-10-16T09:58:52.211Z,9.80
2023-10-16T10:01:30.429Z,9.70
2023-10-16T10:04:05.277Z,9.60
2023-10-16T10:06:36.453Z,9.50
2023-10-16T10:09:32.652Z,9.50
2023-10-16T10:12:15.045Z,9.50
2023-10-16T10:14:50.000Z,9.50
2023-10-16T10:17:22.051Z,9.50
2023-10-16T10:19:57.082Z,9.40
2023-10-16T10:22:28.683Z,9.40
2023-10-16T10:25:20.251Z,9.40
2023-10-16T10:27:49.210Z,9.50
2023-10-16T10:30:19.560Z,9.50
2023-10-16T10:32:57.072Z,9.70
2023-10-16T10:35:31.265Z,9.80
2023-10-16T10:38:08.674Z,9.80
2023-10-16T10:40:38.125Z,9.80
2023-10-16T10:43:09.154Z,9.80
2023-10-16T10:45:41.253Z,9.90
2023-10-16T10:48:11.439Z,10.00
2023-10-16T10:50:42.316Z,10.20
2023-10-16T10:53:18.209Z,10.30
2023-10-16T10:55:57.943Z,10.40
2023-10-16T10:58:33.104Z,10.50
2023-10-16T11:01:19.693Z,10.50
2023-10-16T11:03:48.657Z,10.60
2023-10-16T11:06:20.600Z,10.50
2023-10-16T11:08:50.090Z,10.40
2023-10-16T11:11:19.197Z,10.40
2023-10-16T11:13:48.307Z,10.40
2023-10-16T11:16:17.129Z,10.30
2023-10-16T11:18:59.128Z,10.40
2023-10-16T11:21:29.875Z,10.30
2023-10-16T11:24:01.297Z,10.10
2023-10-16T11:26:30.176Z,9.90
2023-10-16T11:29:01.700Z,9.90
2023-10-16T11:31:30.450Z,9.80
2023-10-16T11:34:04.361Z,9.80
2023-10-16T11:36:42.900Z,9.80
2023-10-16T11:39:20.639Z,9.80
2023-10-16T11:41:52.482Z,9.90
2023-10-16T11:44:27.119Z,9.80
2023-10-16T11:46:55.514Z,9.60
2023-10-16T11:49:24.190Z,9.50
2023-10-16T11:51:55.358Z,9.40
2023-10-16T11:54:25.278Z,9.20
2023-10-16T11:56:58.728Z,9.00
2023-10-16T11:59:29.358Z,8.90
2023-10-16T12:02:03.866Z,8.80
2023-10-16T12:04:33.970Z,8.80
2023-10-16T12:07:03.828Z,8.80
2023-10-16T12:09:38.529Z,8.80
2023-10-16T12:12:09.092Z,8.90
2023-10-16T12:14:38.832Z,8.80
2023-10-16T12:17:12.998Z,8.90
2023-10-16T12:19:41.554Z,9.00
2023-10-16T12:22:11.364Z,9.10
2023-10-16T12:24:40.954Z,9.30
2023-10-16T12:27:09.643Z,9.50
2023-10-16T12:29:38.061Z,9.60
2023-10-16T12:32:07.603Z,9.70
2023-10-16T12:34:36.965Z,9.70
2023-10-16T12:37:08.322Z,9.70
2023-10-16T12:39:47.037Z,9.60
2023-10-16T12:42:16.623Z,9.40
2023-10-16T12:44:45.978Z,9.30
2023-10-16T12:49:45.945Z,9.20
2023-10-16T12:52:14.124Z,9.10
2023-10-16T12:54:46.754Z,9.00
2023-10-16T12:57:15.301Z,9.00
2023-10-16T12:59:43.397Z,9.00
2023-10-16T13:02:11.700Z,8.90
2023-10-16T13:04:44.321Z,8.90
2023-10-16T13:07:19.999Z,8.90
2023-10-16T13:10:01.586Z,8.80
2023-10-16T13:12:30.054Z,8.80
2023-10-16T13:15:01.375Z,8.80
2023-10-16T13:17:29.471Z,8.90
2023-10-16T13:19:57.591Z,8.90
2023-10-16T13:22:26.297Z,8.90
2023-10-16T13:24:56.074Z,9.00
2023-10-16T13:27:25.610Z,9.10
2023-10-16T13:29:54.877Z,9.10
2023-10-16T13:32:23.079Z,9.10
2023-10-16T13:34:51.843Z,9.10
2023-10-16T13:37:21.317Z,9.10
2023-10-16T13:39:49.430Z,9.10
2023-10-16T13:42:17.579Z,9.20
2023-10-16T13:44:47.813Z,9.10
2023-10-16T13:47:16.025Z,9.00
2023-10-16T13:49:44.264Z,9.00
2023-10-16T13:52:13.016Z,9.00
2023-10-16T13:54:42.169Z,8.90
2023-10-16T13:57:10.985Z,8.80
2023-10-16T13:59:40.480Z,8.80
2023-10-16T14:02:11.208Z,8.90
2023-10-16T14:04:39.398Z,8.90
2023-10-16T14:07:09.647Z,8.80
2023-10-16T14:09:39.244Z,8.80
2023-10-16T14:12:08.306Z,8.80
2023-10-16T14:14:36.426Z,8.80
2023-10-16T14:17:06.059Z,8.80
2023-10-16T14:19:36.564Z,8.80
2023-10-16T14:22:07.989Z,8.80
2023-10-16T14:24:36.747Z,8.80
2023-10-16T14:27:06.086Z,8.80
2023-10-16T14:29:39.412Z,8.90
2023-10-16T14:32:08.112Z,8.90
2023-10-16T14:34:37.639Z,9.00
2023-10-16T14:37:07.169Z,9.10
2023-10-16T14:39:36.517Z,9.30
2023-10-16T14:42:06.589Z,9.50
2023-10-16T14:44:35.363Z,9.60
2023-10-16T14:47:10.412Z,9.60
2023-10-16T14:49:40.535Z,9.70
2023-10-16T14:52:08.709Z,9.70
2023-10-16T14:54:37.308Z,9.70
2023-10-16T14:57:07.736Z,9.60
2023-10-16T14:59:36.479Z,9.60
2023-10-16T15:02:05.043Z,9.40
2023-10-16T15:04:33.892Z,9.40
2023-10-16T15:07:06.601Z,9.30
2023-10-16T15:09:36.056Z,9.30
2023-10-16T15:12:08.226Z,9.30
2023-10-16T15:14:36.961Z,9.20
2023-10-16T15:17:06.315Z,9.20
2023-10-16T15:19:39.985Z,9.20
2023-10-16T15:22:09.765Z,9.30
2023-10-16T15:24:38.617Z,9.20
2023-10-16T15:27:06.899Z,9.20
2023-10-16T15:29:35.124Z,9.20
2023-10-16T15:32:08.963Z,9.20
2023-10-16T15:34:37.167Z,9.20
2023-10-16T15:37:08.396Z,9.20
2023-10-16T15:39:39.783Z,9.20
2023-10-16T15:42:09.412Z,9.20
2023-10-16T15:44:37.615Z,9.10
2023-10-16T15:47:05.957Z,9.10
2023-10-16T15:49:34.175Z,9.10
2023-10-16T15:52:02.301Z,9.00
2023-10-16T15:54:30.498Z,9.00
2023-10-16T15:57:01.086Z,9.00
2023-10-16T15:59:29.210Z,8.90
2023-10-16T16:01:57.388Z,8.90
2023-10-16T16:04:27.629Z,8.90
2023-10-16T16:06:56.757Z,8.80
2023-10-16T16:09:26.576Z,8.80
2023-10-16T16:11:54.745Z,8.70
2023-10-16T16:14:24.375Z,8.70
2023-10-16T16:16:53.494Z,8.70
2023-10-16T16:19:24.124Z,8.60
2023-10-16T16:21:53.170Z,8.70
2023-10-16T16:24:21.603Z,8.70
2023-10-16T16:26:50.603Z,8.60
2023-10-16T16:29:19.119Z,8.60
2023-10-16T16:31:48.726Z,8.60
2023-10-16T16:34:16.925Z,8.50
2023-10-16T16:36:45.208Z,8.50
2023-10-16T16:39:19.336Z,8.50
2023-10-16T16:41:47.995Z,8.40
2023-10-16T16:44:16.852Z,8.40
2023-10-16T16:46:45.389Z,8.40
2023-10-16T16:49:15.135Z,8.40
2023-10-16T16:51:44.226Z,8.30
2023-10-16T16:54:13.137Z,8.20
2023-10-16T16:56:42.552Z,8.20
2023-10-16T16:59:14.105Z,8.10
2023-10-16T17:01:47.202Z,8.10
2023-10-16T17:04:18.748Z,8.10
2023-10-16T17:06:47.423Z,8.10
2023-10-16T17:09:18.852Z,8.10
2023-10-16T17:11:49.430Z,8.10
2023-10-16T17:14:18.052Z,8.10
2023-10-16T17:16:47.545Z,8.10
2023-10-16T17:19:17.245Z,8.10
2023-10-16T17:21:48.919Z,8.00
2023-10-16T17:24:17.637Z,8.00
2023-10-16T17:26:46.617Z,8.00
2023-10-16T17:29:14.910Z,8.00
2023-10-16T17:31:43.013Z,8.00
2023-10-16T17:34:11.208Z,7.90
2023-10-16T17:36:40.710Z,7.90
2023-10-16T17:39:14.789Z,7.90
2023-10-16T17:41:43.137Z,7.80
2023-10-16T17:44:11.381Z,7.70
2023-10-16T17:46:41.986Z,7.60
2023-10-16T17:49:10.545Z,7.50
2023-10-16T17:51:40.117Z,7.50
2023-10-16T17:54:10.023Z,7.40
2023-10-16T17:56:41.218Z,7.30
2023-10-16T17:59:09.776Z,7.30
2023-10-16T18:01:38.080Z,7.30
2023-10-16T18:04:07.788Z,7.30
2023-10-16T18:06:37.084Z,7.20
2023-10-16T18:09:08.858Z,7.10
2023-10-16T18:11:40.305Z,7.00
2023-10-16T18:14:09.011Z,7.00
2023-10-16T18:16:40.216Z,7.00
2023-10-16T18:19:08.700Z,7.00
2023-10-16T18:21:37.339Z,6.90
2023-10-16T18:24:09.631Z,6.90
2023-10-16T18:26:37.920Z,6.80
2023-10-16T18:29:06.169Z,6.70
2023-10-16T18:31:37.869Z,6.70
2023-10-16T18:34:07.939Z,6.60
2023-10-16T18:36:37.467Z,6.60
2023-10-16T18:39:14.627Z,6.50
2023-10-16T18:41:46.093Z,6.40
2023-10-16T18:44:15.434Z,6.30
2023-10-16T18:46:43.797Z,6.30
2023-10-16T18:49:12.091Z,6.30
2023-10-16T18:51:40.653Z,6.20
2023-10-16T18:54:10.279Z,6.20
2023-10-16T18:56:38.510Z,6.20
2023-10-16T18:59:07.912Z,6.10
2023-10-16T19:01:36.088Z,6.00
2023-10-16T19:04:04.252Z,6.00
2023-10-16T19:06:34.394Z,6.00
2023-10-16T19:09:05.233Z,6.00
2023-10-16T19:11:35.072Z,5.90
2023-10-16T19:14:05.458Z,5.90
2023-10-16T19:16:33.687Z,5.90
2023-10-16T19:19:01.973Z,5.90
2023-10-16T19:21:30.189Z,5.80
2023-10-16T19:23:58.354Z,5.70
2023-10-16T19:26:26.505Z,5.70
2023-10-16T19:28:56.274Z,5.70
2023-10-16T19:31:25.538Z,5.70
2023-10-16T19:33:54.726Z,5.60
2023-10-16T19:36:23.323Z,5.60
2023-10-16T19:38:51.619Z,5.60
2023-10-16T19:41:20.021Z,5.60
2023-10-16T19:43:50.220Z,5.60
2023-10-16T19:46:21.058Z,5.60
2023-10-16T19:48:49.644Z,5.60
2023-10-16T19:51:19.492Z,5.60
2023-10-16T19:53:48.491Z,5.60
2023-10-16T19:56:20.636Z,5.50
2023-10-16T19:58:53.209Z,5.50
2023-10-16T20:01:25.974Z,5.50
2023-10-16T20:03:55.480Z,5.50
2023-10-16T20:06:26.275Z,5.40
2023-10-16T20:08:56.173Z,5.30
2023-10-16T20:11:27.327Z,5.30
2023-10-16T20:13:57.255Z,5.20
2023-10-16T20:16:26.926Z,5.20
2023-10-16T20:18:55.125Z,5.20
2023-10-16T20:21:25.174Z,5.20
2023-10-16T20:23:53.917Z,5.20
2023-10-16T20:26:23.958Z,5.20
2023-10-16T20:28:52.988Z,5.10
2023-10-16T20:31:22.543Z,5.10
2023-10-16T20:33:52.424Z,5.10
2023-10-16T20:36:22.110Z,5.10
2023-10-16T20:38:51.706Z,5.10
2023-10-16T20:41:22.780Z,5.10
2023-10-16T20:43:53.568Z,5.10
2023-10-16T20:46:21.997Z,5.10
2023-10-16T20:48:50.322Z,5.10
2023-10-16T20:51:21.038Z,5.10
2023-10-16T20:53:49.344Z,5.10
2023-10-16T20:56:17.498Z,5.10
2023-10-16T20:58:47.376Z,5.10
2023-10-16T21:01:16.466Z,5.10
2023-10-16T21:03:45.372Z,5.10
2023-10-16T21:06:15.628Z,5.10
2023-10-16T21:08:45.549Z,5.10
2023-10-16T21:11:13.628Z,5.10
2023-10-16T21:13:41.942Z,5.10
2023-10-16T21:16:10.167Z,5.10
2023-10-16T21:18:38.450Z,5.10
2023-10-16T21:21:07.133Z,5.00
2023-10-16T21:23:35.368Z,5.00
2023-10-16T21:26:14.736Z,5.10
2023-10-16T21:28:42.990Z,5.10
2023-10-16T21:31:11.510Z,5.10
2023-10-16T21:33:39.798Z,5.10
2023-10-16T21:36:11.981Z,5.00
2023-10-16T21:38:40.857Z,5.00
2023-10-16T21:41:10.453Z,5.00
2023-10-16T21:43:38.610Z,4.90
2023-10-16T21:46:06.875Z,4.90
2023-10-16T21:48:39.737Z,4.90
2023-10-16T21:51:09.313Z,4.90
2023-10-16T21:53:38.036Z,4.90
2023-10-16T21:56:06.850Z,4.90
2023-10-16T21:58:37.027Z,4.80
2023-10-16T22:01:08.521Z,4.80
2023-10-16T22:03:39.502Z,4.80
2023-10-16T22:06:09.217Z,4.80
2023-10-16T22:08:37.629Z,4.80
2023-10-16T22:11:05.888Z,4.80
2023-10-16T22:13:34.171Z,4.90
2023-10-16T22:16:03.711Z,4.90
2023-10-16T22:18:32.074Z,4.90
2023-10-16T22:21:15.958Z,4.90
2023-10-16T22:23:45.087Z,4.90
2023-10-16T22:26:13.872Z,4.90
2023-10-16T22:28:42.741Z,4.90
2023-10-16T22:31:12.536Z,4.90
2023-10-16T22:33:40.775Z,4.90
2023-10-16T22:36:10.666Z,4.80
2023-10-16T22:38:39.217Z,4.80
2023-10-16T22:41:07.596Z,4.70
2023-10-16T22:43:36.541Z,4.70
2023-10-16T22:46:06.720Z,4.70
2023-10-16T22:48:36.799Z,4.70
2023-10-16T22:51:05.521Z,4.70
2023-10-16T22:53:33.784Z,4.70
2023-10-16T22:56:06.635Z,4.70
2023-10-16T22:58:34.965Z,4.70
2023-10-16T23:01:06.319Z,4.70
2023-10-16T23:03:36.716Z,4.70
2023-10-16T23:06:06.488Z,4.70
2023-10-16T23:08:40.198Z,4.60
2023-10-16T23:11:18.980Z,4.70
2023-10-16T23:13:54.872Z,4.60
2023-10-16T23:16:24.855Z,4.50
2023-10-16T23:18:56.126Z,4.40
2023-10-16T23:21:26.014Z,4.40
2023-10-16T23:23:56.407Z,4.40
2023-10-16T23:26:24.669Z,4.40
2023-10-16T23:28:55.027Z,4.40
2023-10-16T23:31:25.177Z,4.40
2023-10-16T23:34:02.960Z,4.30
2023-10-16T23:36:31.195Z,4.30
2023-10-16T23:39:01.489Z,4.20
2023-10-16T23:41:29.971Z,4.20
2023-10-16T23:44:15.793Z,4.20
2023-10-16T23:46:44.787Z,4.20
2023-10-16T23:49:18.952Z,4.20
2023-10-16T23:51:49.631Z,4.30
2023-10-16T23:54:20.546Z,4.20
2023-10-16T23:56:53.247Z,4.20
2023-10-16T23:59:21.454Z,4.20
